Palouse, WA (99161)

6:41 PM PDT on September 30, 2014 (GMT -0700)
Palouse Cove | Change Station
CLOSE
Current Station
Personal Weather Station
Location: Palouse, WA
Elevation: 750 m
Nearby Weather Stations

Elev 750 m 46.91 °N, 117.08 °W | Updated 59 seconds ago

Overcast
Overcast
10.3 °C
Feels Like 10.3 °C
N
6.4
Wind Variable Wind from SW
Gusts 20.9 km/h

Today
High -- | Low -- °C
--% Chance of Precip.
Yesterday
High -- | Low -- °C
Precip. -- mm
6:45 AM 6:29 PM
Waxing Crescent, 42% visible
Pressure 1014 hPa
Visibility 16.1 kilometers
Clouds Few 2438 m
Overcast 3048 m
Dew Point 6 °C
Humidity 76%
Rainfall 9 mm
Snow Depth 0 in , 0 in , 0 in
UV 0 out of 12
Pollen 6.50 out of 12
Air Quality Not available.
Flu Activity Not available.
SPECI KPUW 010128Z AUTO 24014KT 10SM FEW080 OVC100 14/03 A2996 RMK AO2 T01440028

More Conditions Fewer Conditions

Pressure 1014 hPa
Visibility 16.1 kilometers
Clouds Few 2438 m
Overcast 3048 m
Dew Point 6 °C
Humidity 76%
Rainfall 9 mm
Snow Depth 0 in , 0 in , 0 in
UV 0 out of 12
Pollen 6.50 out of 12
Air Quality Not available.
Flu Activity Not available.
SPECI KPUW 010128Z AUTO 24014KT 10SM FEW080 OVC100 14/03 A2996 RMK AO2 T01440028

More Conditions Fewer Conditions

Nowcast | as of 5:52 PM PDT on September 30, 2014

Through 730 PM...scattered showers and isolated thunderstorms will move southeast across the Washington and Idaho Palouse and into the Lewis Clark Valley. Some of these storms will be capable of producing brief periods of heavy rain, gusty winds and occasional lightning. Motorists traveling along Highway 195 south of Spangle and Highway 95 south of Plummer should be prepared for sudden changes in visibility in heavy rain.

×

10-Day Weather Forecast

Almanac

Astronomy

Sep. 30, 2014 Rise Set
Actual Time 6:45 AM PDT 6:29 PM PDT
Civil Twilight 6:15 AM PDT 6:59 PM PDT
Nautical Twilight 5:40 AM PDT 7:35 PM PDT
Astronomical Twilight 5:04 AM PDT 8:11 PM PDT
Moon 1:15 PM PDT (9/30) 10:47 PM PDT (9/30)
Length of Visible Light 12h 44m
Length of Day
11h 43m
Tomorrow will be 3m 19s shorter.
Waxing Crescent, 42% of the Moon is Illuminated
Today
Waxing Crescent
Oct 1
First Quarter
Oct 8
Full
Oct 15
Last Quarter
Oct 23
New

Today's Extremes

State Highs State Lows

Community

WunderPhotos

Upload Photos

1,757,821 photos uploaded!

Nearby

Snow Depth

Station Depth Elevation
Beaver Pass 0 in 3620 ft
Green Lake 0 in 6000 ft
Alpine Meadows 0 in 3500 ft
Bunchgrass Meadow 0 in 5000 ft
Surprise Lakes 1 in 4250 ft

Earthquake Activity

City Distance Mag. Time & Date
No recent earthquake activity has been reported nearby.
Minimum magnitude displayed is 2.5.

Coastal Water Temperatures

Place Temperature
No Stations Reporting

Nearby Weather Stations